Time;durP1;ratioP1;P1;durP2;ratioP2;P2;SDS_P1;SDS_P2;PMS_P1;PMS_P2;Temp;Humidity;BMP_temperature;BMP_pressure;BME280_temperature;BME280_humidity;BME280_pressure;Samples;Min_cycle;Max_cycle;Signal;HPM_P1;HPM_P2
2023/06/03 00:00:03;;;;;;;5.07;1.27;;;;;;;15.28;nan;102213.53;5054279;28;20060;-39
2023/06/03 00:02:29;;;;;;;6.10;1.27;;;;;;;15.10;nan;102213.59;5044247;28;20187;-40
2023/06/03 00:04:54;;;;;;;3.78;1.42;;;;;;;14.98;nan;102216.91;5044458;28;20208;-39
2023/06/03 00:07:20;;;;;;;6.75;1.70;;;;;;;15.01;nan;102222.03;5050247;28;20035;-39
2023/06/03 00:09:45;;;;;;;3.08;1.45;;;;;;;15.04;nan;102227.19;5046404;28;20039;-38
2023/06/03 00:12:11;;;;;;;3.83;0.73;;;;;;;14.93;nan;102225.94;5049941;28;20108;-39
2023/06/03 00:14:36;;;;;;;4.72;1.60;;;;;;;14.84;nan;102229.09;5050109;28;20115;-39
2023/06/03 00:17:01;;;;;;;5.20;1.50;;;;;;;14.78;nan;102226.75;5045397;28;20037;-39
2023/06/03 00:19:27;;;;;;;9.32;2.65;;;;;;;14.80;nan;102218.72;5048738;28;20036;-40
2023/06/03 00:21:54;;;;;;;4.93;1.67;;;;;;;14.81;nan;102223.94;5047584;28;20491;-39
2023/06/03 00:24:22;;;;;;;3.80;1.40;;;;;;;14.87;nan;102223.63;5049157;28;20025;-39
2023/06/03 00:26:51;;;;;;;3.72;1.48;;;;;;;14.90;nan;102228.75;5049921;28;20163;-39
2023/06/03 00:29:16;;;;;;;9.88;1.83;;;;;;;14.89;nan;102228.84;5046746;28;20025;-39
2023/06/03 00:31:45;;;;;;;5.32;1.60;;;;;;;14.87;nan;102226.28;5052047;28;20078;-39
2023/06/03 00:34:10;;;;;;;4.47;1.42;;;;;;;14.85;nan;102225.50;5048455;28;20090;-38
2023/06/03 00:36:36;;;;;;;6.50;1.70;;;;;;;14.80;nan;102230.19;5047198;28;20037;-39
2023/06/03 00:39:02;;;;;;;4.03;1.70;;;;;;;14.73;nan;102234.94;5040835;28;20056;-39
2023/06/03 00:41:27;;;;;;;5.68;1.42;;;;;;;14.68;nan;102233.47;5049488;28;20037;-39
2023/06/03 00:43:53;;;;;;;3.72;1.35;;;;;;;14.66;nan;102230.00;5046128;28;20075;-40
2023/06/03 00:46:20;;;;;;;4.05;1.70;;;;;;;14.50;nan;102233.44;5039313;28;20033;-38
2023/06/03 00:48:46;;;;;;;4.95;1.33;;;;;;;14.38;nan;102239.34;5044486;28;20519;-40
2023/06/03 00:51:13;;;;;;;7.85;1.50;;;;;;;14.26;nan;102239.03;5039457;28;20098;-40
2023/06/03 00:53:38;;;;;;;8.25;1.75;;;;;;;14.22;nan;102234.81;5040969;28;20134;-40
2023/06/03 00:56:04;;;;;;;5.85;1.58;;;;;;;14.29;nan;102236.22;5030487;28;20024;-40
2023/06/03 00:58:30;;;;;;;4.35;1.38;;;;;;;14.33;nan;102235.13;5049161;28;20036;-39
2023/06/03 01:00:55;;;;;;;5.47;1.25;;;;;;;14.33;nan;102237.78;5046370;28;20040;-38
2023/06/03 01:03:21;;;;;;;2.95;1.15;;;;;;;14.31;nan;102244.94;5039798;28;20032;-39
2023/06/03 01:06:04;;;;;;;5.80;1.33;;;;;;;14.23;nan;102235.66;5050511;28;20036;-39
2023/06/03 01:08:31;;;;;;;;;;;;;;;14.06;nan;102241.78;5044218;28;20040;-39
2023/06/03 01:11:15;;;;;;;4.97;1.40;;;;;;;14.04;nan;102236.59;5046054;28;20403;-39
2023/06/03 01:13:59;;;;;;;5.47;1.77;;;;;;;13.94;nan;102246.75;5042412;28;20037;-39
2023/06/03 01:16:26;;;;;;;4.18;1.27;;;;;;;13.80;nan;102243.91;5047538;28;20029;-39
2023/06/03 01:18:52;;;;;;;4.05;1.35;;;;;;;13.74;nan;102241.53;5040411;28;20033;-39
2023/06/03 01:21:18;;;;;;;2.70;0.85;;;;;;;13.75;nan;102246.78;5035658;28;20051;-39
2023/06/03 01:23:44;;;;;;;4.05;1.42;;;;;;;13.72;nan;102244.28;5046447;28;20036;-39
2023/06/03 01:26:11;;;;;;;5.90;1.33;;;;;;;13.79;nan;102247.47;5038096;28;20560;-39
2023/06/03 01:28:38;;;;;;;5.95;1.30;;;;;;;13.84;nan;102246.34;5044143;28;20517;-39
2023/06/03 01:31:04;;;;;;;4.72;1.65;;;;;;;13.82;nan;102252.63;5046001;28;20029;-39
2023/06/03 01:33:31;;;;;;;4.47;1.58;;;;;;;13.74;nan;102245.06;5041170;28;20052;-39
2023/06/03 01:35:59;;;;;;;4.10;1.52;;;;;;;13.71;nan;102243.41;5039305;28;20051;-39
2023/06/03 01:38:26;;;;;;;2.95;1.10;;;;;;;13.61;nan;102250.06;5042372;28;20037;-39
2023/06/03 01:40:52;;;;;;;2.90;1.20;;;;;;;13.64;nan;102249.94;5044676;28;20037;-38
2023/06/03 01:43:18;;;;;;;4.03;1.20;;;;;;;13.67;nan;102244.50;5044629;28;20086;-41
2023/06/03 01:45:44;;;;;;;4.28;1.30;;;;;;;13.57;nan;102248.47;5040592;28;20033;-39
2023/06/03 01:48:09;;;;;;;4.18;1.17;;;;;;;13.52;nan;102248.69;5044325;28;20035;-39
2023/06/03 01:50:39;;;;;;;4.30;1.13;;;;;;;13.47;nan;102248.03;5044766;28;20033;-39
2023/06/03 01:53:05;;;;;;;3.50;1.45;;;;;;;13.30;nan;102246.16;5042603;28;20033;-39
2023/06/03 01:55:30;;;;;;;4.90;1.83;;;;;;;13.27;nan;102247.16;5044153;28;20032;-39
2023/06/03 01:57:55;;;;;;;3.42;1.38;;;;;;;13.22;nan;102249.13;5045468;28;20041;-39
2023/06/03 02:00:21;;;;;;;4.63;1.33;;;;;;;13.26;nan;102244.56;5041004;28;20085;-39
2023/06/03 02:02:47;;;;;;;4.15;1.85;;;;;;;13.25;nan;102249.00;5039642;28;20029;-39
2023/06/03 02:05:12;;;;;;;3.97;1.40;;;;;;;13.32;nan;102249.59;5043094;28;20044;-39
2023/06/03 02:07:37;;;;;;;2.08;1.27;;;;;;;13.33;nan;102246.00;5024681;28;20025;-39
2023/06/03 02:10:03;;;;;;;4.78;1.50;;;;;;;13.23;nan;102250.00;5047420;28;20032;-40
2023/06/03 02:12:29;;;;;;;13.52;1.50;;;;;;;13.16;nan;102254.69;5045565;28;20033;-39
2023/06/03 02:14:56;;;;;;;4.82;1.23;;;;;;;13.14;nan;102256.56;5044419;28;20055;-39
2023/06/03 02:17:22;;;;;;;5.70;1.55;;;;;;;13.13;nan;102253.97;5048798;28;20102;-38
2023/06/03 02:19:48;;;;;;;4.32;1.88;;;;;;;13.09;nan;102251.47;5049902;28;20556;-38
2023/06/03 02:22:13;;;;;;;7.10;1.30;;;;;;;13.17;nan;102258.19;5047306;28;20045;-39
2023/06/03 02:24:39;;;;;;;2.95;1.10;;;;;;;13.19;nan;102259.00;5048721;28;20087;-39
2023/06/03 02:27:05;;;;;;;2.60;1.30;;;;;;;13.20;nan;102260.72;5044942;28;20090;-39
2023/06/03 02:29:32;;;;;;;3.30;1.23;;;;;;;13.15;nan;102257.41;5045593;28;20116;-39
2023/06/03 02:31:59;;;;;;;4.28;1.10;;;;;;;12.97;nan;102265.22;5042306;28;20037;-38
2023/06/03 02:34:25;;;;;;;3.35;1.10;;;;;;;12.80;nan;102264.16;5045327;28;20550;-39
2023/06/03 02:36:52;;;;;;;4.63;1.20;;;;;;;12.76;nan;102261.72;5041102;28;20060;-39
2023/06/03 02:39:19;;;;;;;4.13;1.40;;;;;;;12.78;nan;102263.34;5048835;28;20055;-38
2023/06/03 02:41:46;;;;;;;2.65;1.02;;;;;;;12.73;nan;102267.13;5046278;28;20044;-39
2023/06/03 02:44:13;;;;;;;3.10;1.50;;;;;;;12.63;nan;102264.00;5044976;28;20041;-39
2023/06/03 02:46:43;;;;;;;3.13;1.30;;;;;;;12.50;nan;102277.72;5037387;28;20040;-39
2023/06/03 02:49:09;;;;;;;3.83;1.25;;;;;;;12.50;nan;102269.81;5044033;28;20041;-39
2023/06/03 02:51:40;;;;;;;3.33;1.38;;;;;;;12.58;nan;102273.94;5042595;28;20030;-39
2023/06/03 02:54:05;;;;;;;4.45;1.42;;;;;;;12.59;nan;102279.13;5045011;28;20036;-39
2023/06/03 02:56:31;;;;;;;7.53;1.77;;;;;;;12.60;nan;102274.72;5040167;28;20068;-39
2023/06/03 02:58:56;;;;;;;2.50;1.00;;;;;;;12.60;nan;102280.00;5044878;28;20033;-39
2023/06/03 03:01:24;;;;;;;7.13;2.35;;;;;;;12.69;nan;102276.97;5049260;28;20049;-39
2023/06/03 03:03:49;;;;;;;3.75;1.20;;;;;;;12.67;nan;102278.81;5047611;28;20039;-39
2023/06/03 03:06:21;;;;;;;6.07;1.23;;;;;;;12.70;nan;102291.88;5046554;28;20032;-41
2023/06/03 03:08:47;;;;;;;5.15;1.52;;;;;;;12.72;nan;102290.06;5042014;28;20043;-39
2023/06/03 03:11:14;;;;;;;7.47;1.40;;;;;;;12.75;nan;102287.28;5048530;28;20068;-39
2023/06/03 03:13:41;;;;;;;4.35;1.50;;;;;;;12.77;nan;102290.72;5046458;28;20079;-39
2023/06/03 03:16:07;;;;;;;2.65;1.20;;;;;;;12.74;nan;102290.84;5048416;28;20025;-39
2023/06/03 03:18:32;;;;;;;7.22;3.17;;;;;;;12.75;nan;102287.28;5048106;28;20048;-39
2023/06/03 03:20:58;;;;;;;4.80;1.95;;;;;;;12.62;nan;102288.72;5052437;28;20024;-38
2023/06/03 03:23:24;;;;;;;5.53;1.35;;;;;;;12.60;nan;102283.50;5047903;28;20027;-39
2023/06/03 03:25:49;;;;;;;3.83;1.50;;;;;;;12.92;nan;102293.63;5044597;28;20037;-39
2023/06/03 03:28:15;;;;;;;3.20;1.02;;;;;;;13.22;nan;102290.59;5045305;28;20043;-39
2023/06/03 03:30:41;;;;;;;3.05;1.45;;;;;;;13.32;nan;102297.16;5050610;28;20025;-39
2023/06/03 03:33:07;;;;;;;1.95;1.00;;;;;;;13.34;nan;102294.44;5049091;28;20510;-39
2023/06/03 03:35:32;;;;;;;3.08;1.10;;;;;;;13.34;nan;102299.72;5045068;28;20032;-39
2023/06/03 03:38:04;;;;;;;9.60;1.58;;;;;;;13.40;nan;102297.69;5046385;28;20459;-40
2023/06/03 03:40:35;;;;;;;4.60;1.58;;;;;;;13.37;nan;102300.47;5051345;28;20120;-39
2023/06/03 03:43:02;;;;;;;2.25;1.10;;;;;;;13.38;nan;102307.47;5046968;28;20021;-38
2023/06/03 03:45:36;;;;;;;6.50;1.52;;;;;;;12.83;nan;102302.81;5050309;28;20064;-39
2023/06/03 03:48:04;;;;;;;3.47;1.20;;;;;;;12.62;nan;102301.94;5048673;28;20116;-39
2023/06/03 03:50:40;;;;;;;6.68;1.33;;;;;;;12.42;nan;102311.53;5054337;28;20029;-39
2023/06/03 03:53:11;;;;;;;7.53;3.42;;;;;;;12.38;nan;102312.56;5051149;28;20066;-40
2023/06/03 03:55:42;;;;;;;5.93;1.80;;;;;;;12.37;nan;102308.19;5052173;28;20019;-40
2023/06/03 03:58:16;;;;;;;4.90;1.08;;;;;;;12.38;nan;102323.13;5047373;28;20422;-40
2023/06/03 04:00:43;;;;;;;4.72;1.38;;;;;;;12.43;nan;102307.09;5041307;28;20035;-40
2023/06/03 04:03:11;;;;;;;4.10;1.20;;;;;;;12.50;nan;102319.13;5044427;28;20072;-40
2023/06/03 04:05:36;;;;;;;2.45;1.02;;;;;;;12.54;nan;102314.56;5047997;28;20048;-40
2023/06/03 04:08:03;;;;;;;4.95;1.75;;;;;;;12.59;nan;102321.38;5049380;28;20029;-40
2023/06/03 04:10:29;;;;;;;4.22;1.55;;;;;;;12.64;nan;102329.09;5050045;28;20036;-40
2023/06/03 04:12:54;;;;;;;2.83;1.25;;;;;;;12.62;nan;102330.97;5041663;28;20025;-42
2023/06/03 04:15:24;;;;;;;5.80;1.40;;;;;;;12.66;nan;102329.91;5040153;28;20055;-41
2023/06/03 04:17:50;;;;;;;3.22;1.08;;;;;;;12.70;nan;102328.88;5031714;28;20171;-39
2023/06/03 04:20:40;;;;;;;8.73;1.45;;;;;;;12.76;nan;102333.03;5051427;28;20138;-40
2023/06/03 04:23:12;;;;;;;8.85;1.10;;;;;;;12.80;nan;102327.56;5043621;28;20025;-39
2023/06/03 04:25:40;;;;;;;2.92;1.40;;;;;;;12.81;nan;102328.44;5042828;28;20052;-40
2023/06/03 04:28:06;;;;;;;3.60;1.42;;;;;;;12.81;nan;102334.56;5045000;28;20041;-40
2023/06/03 04:30:31;;;;;;;2.58;1.15;;;;;;;12.79;nan;102333.75;5046632;28;20032;-40
2023/06/03 04:32:57;;;;;;;3.25;1.20;;;;;;;12.83;nan;102331.00;5045235;28;20403;-40
2023/06/03 04:35:23;;;;;;;2.70;1.27;;;;;;;12.87;nan;102332.59;5043228;28;20036;-40
2023/06/03 04:37:50;;;;;;;2.83;1.00;;;;;;;12.93;nan;102335.00;5045357;28;20044;-40
2023/06/03 04:40:15;;;;;;;3.42;1.10;;;;;;;12.99;nan;102329.44;5045196;28;20063;-39
2023/06/03 04:42:41;;;;;;;11.90;5.15;;;;;;;13.04;nan;102339.78;5032154;28;20040;-40
2023/06/03 04:45:07;;;;;;;5.60;2.65;;;;;;;13.07;nan;102337.91;5027276;28;20037;-40
2023/06/03 04:47:34;;;;;;;4.40;1.20;;;;;;;13.12;nan;102337.69;5045233;28;20111;-38
2023/06/03 04:50:00;;;;;;;5.25;1.60;;;;;;;13.16;nan;102338.41;5043357;28;20041;-39
2023/06/03 04:52:27;;;;;;;3.95;1.52;;;;;;;13.23;nan;102339.88;5039079;28;20029;-38
2023/06/03 04:54:53;;;;;;;3.78;1.52;;;;;;;13.26;nan;102342.38;5047079;28;20017;-40
2023/06/03 04:57:18;;;;;;;4.40;1.17;;;;;;;13.33;nan;102345.59;5045804;28;20055;-39
2023/06/03 04:59:43;;;;;;;2.53;0.90;;;;;;;13.36;nan;102337.53;5045403;28;20037;-40
2023/06/03 05:02:13;;;;;;;3.65;1.30;;;;;;;13.41;nan;102333.78;5048262;28;20025;-40
2023/06/03 05:04:40;;;;;;;1.67;0.60;;;;;;;13.46;nan;102327.44;5041287;28;20052;-40
2023/06/03 05:07:06;;;;;;;3.60;1.73;;;;;;;13.52;nan;102328.03;5047255;28;20036;-40
2023/06/03 05:09:32;;;;;;;5.15;2.08;;;;;;;13.60;nan;102332.97;5027638;28;20032;-41
2023/06/03 05:11:58;;;;;;;3.15;1.33;;;;;;;13.67;nan;102330.91;5046986;28;20079;-41
2023/06/03 05:14:24;;;;;;;2.97;1.30;;;;;;;13.71;nan;102332.50;5036694;28;20052;-40
2023/06/03 05:16:49;;;;;;;1.92;0.77;;;;;;;13.77;nan;102328.72;5042160;28;20368;-40
2023/06/03 05:19:15;;;;;;;3.58;1.33;;;;;;;13.81;nan;102327.66;5045070;28;20043;-36
2023/06/03 05:21:40;;;;;;;2.95;1.05;;;;;;;13.85;nan;102327.44;5039338;28;20044;-40
2023/06/03 05:24:06;;;;;;;4.43;2.05;;;;;;;13.93;nan;102331.47;5045241;28;20419;-38
2023/06/03 05:26:34;;;;;;;6.22;1.63;;;;;;;14.00;nan;102331.13;5045278;28;20044;-40
2023/06/03 05:28:59;;;;;;;2.63;1.25;;;;;;;14.00;nan;102331.13;5034719;28;20029;-44
2023/06/03 05:31:25;;;;;;;2.72;0.93;;;;;;;14.01;nan;102332.00;5048743;28;20031;-39
2023/06/03 05:33:50;;;;;;;2.80;1.17;;;;;;;14.07;nan;102330.84;5040305;28;20040;-40
2023/06/03 05:36:16;;;;;;;3.78;1.23;;;;;;;14.13;nan;102322.63;5038364;28;20033;-39
2023/06/03 05:38:41;;;;;;;7.32;1.05;;;;;;;14.19;nan;102322.31;5026254;28;20036;-38
2023/06/03 05:41:06;;;;;;;2.97;1.35;;;;;;;14.26;nan;102325.53;5054800;28;20132;-39
2023/06/03 05:43:32;;;;;;;1.85;0.70;;;;;;;14.30;nan;102333.25;5043598;28;20040;-40
2023/06/03 05:45:58;;;;;;;4.75;1.15;;;;;;;14.36;nan;102331.25;5035926;28;20053;-39
2023/06/03 05:48:24;;;;;;;5.95;1.20;;;;;;;14.40;nan;102327.53;5043215;28;20108;-38
2023/06/03 05:50:53;;;;;;;3.35;1.40;;;;;;;14.39;nan;102336.41;5042534;28;20111;-40
2023/06/03 05:53:21;;;;;;;20.77;11.52;;;;;;;14.32;nan;102334.03;5038242;28;20058;-40
2023/06/03 05:55:50;;;;;;;7.25;2.20;;;;;;;14.35;nan;102334.81;5040676;28;20027;-39
2023/06/03 05:58:20;;;;;;;5.28;1.48;;;;;;;14.40;nan;102336.31;5044655;28;20033;-40
2023/06/03 06:00:46;;;;;;;2.90;1.50;;;;;;;14.46;nan;102332.50;5038507;28;20040;-40
2023/06/03 06:03:15;;;;;;;3.17;1.25;;;;;;;14.57;nan;102335.50;5045007;28;20029;-39
2023/06/03 06:05:41;;;;;;;3.67;1.40;;;;;;;14.63;nan;102334.34;5045549;28;20036;-39
2023/06/03 06:08:06;;;;;;;3.63;1.30;;;;;;;14.68;nan;102337.63;5031132;28;20040;-39
2023/06/03 06:10:32;;;;;;;2.08;1.30;;;;;;;14.74;nan;102336.50;5041821;28;20086;-40
2023/06/03 06:12:57;;;;;;;2.97;0.90;;;;;;;14.78;nan;102330.09;5037863;28;20032;-40
2023/06/03 06:15:23;;;;;;;5.28;1.63;;;;;;;14.84;nan;102332.44;5043889;28;20033;-40
2023/06/03 06:17:48;;;;;;;3.75;1.75;;;;;;;14.86;nan;102337.66;5042740;28;20032;-40
2023/06/03 06:20:14;;;;;;;5.70;1.77;;;;;;;14.89;nan;102332.19;5025741;28;20036;-38
2023/06/03 06:22:39;;;;;;;3.30;1.60;;;;;;;14.85;nan;102334.16;5042644;28;20033;-39
2023/06/03 06:25:09;;;;;;;5.63;1.60;;;;;;;14.81;nan;102332.59;5042213;28;20040;-41
2023/06/03 06:27:34;;;;;;;3.33;1.10;;;;;;;14.84;nan;102337.75;5035672;28;20075;-39
2023/06/03 06:30:01;;;;;;;5.43;1.20;;;;;;;14.91;nan;102335.63;5031987;28;20140;-38
2023/06/03 06:32:27;;;;;;;5.55;1.35;;;;;;;15.01;nan;102330.72;5039009;28;20486;-39
2023/06/03 06:34:53;;;;;;;4.78;1.20;;;;;;;15.09;nan;102339.13;5033485;28;20567;-39
2023/06/03 06:37:19;;;;;;;5.03;0.80;;;;;;;15.15;nan;102336.16;5034690;28;20087;-39
2023/06/03 06:39:48;;;;;;;5.50;0.70;;;;;;;15.18;nan;102338.66;5038329;28;20029;-40
2023/06/03 06:42:26;;;;;;;2.45;0.88;;;;;;;15.17;nan;102331.66;5032973;28;20024;-38
2023/06/03 06:44:52;;;;;;;2.55;0.70;;;;;;;15.19;nan;102335.09;5032383;28;20036;-38
2023/06/03 06:47:26;;;;;;;2.47;0.73;;;;;;;15.26;nan;102337.41;5017972;28;20033;-39
2023/06/03 06:49:55;;;;;;;5.28;1.30;;;;;;;15.31;nan;102344.16;5035815;28;20033;-38
2023/06/03 06:52:22;;;;;;;5.68;1.60;;;;;;;15.40;nan;102334.88;5038844;28;20482;-38
2023/06/03 06:54:48;;;;;;;4.10;1.20;;;;;;;15.46;nan;102337.22;5038562;28;20037;-38
2023/06/03 06:57:21;;;;;;;4.55;1.58;;;;;;;15.53;nan;102335.94;5044968;28;20041;-40
2023/06/03 06:59:47;;;;;;;8.30;2.97;;;;;;;15.59;nan;102334.75;5037841;28;20037;-40
2023/06/03 07:02:15;;;;;;;19.05;9.63;;;;;;;15.66;nan;102340.56;5033594;28;20128;-39
2023/06/03 07:04:41;;;;;;;6.75;2.72;;;;;;;15.69;nan;102335.09;5036219;28;20029;-39
2023/06/03 07:07:06;;;;;;;16.35;9.52;;;;;;;15.71;nan;102338.53;5035442;28;20043;-39
2023/06/03 07:09:31;;;;;;;5.68;2.30;;;;;;;15.77;nan;102335.56;5031457;28;20779;-39
2023/06/03 07:11:57;;;;;;;3.80;1.27;;;;;;;15.82;nan;102336.16;5015938;28;20044;-40
2023/06/03 07:14:23;;;;;;;2.50;0.90;;;;;;;15.87;nan;102340.38;5030973;28;20025;-39
2023/06/03 07:16:48;;;;;;;3.40;1.08;;;;;;;15.91;nan;102333.97;5037735;28;20039;-39
2023/06/03 07:19:14;;;;;;;2.55;0.77;;;;;;;15.94;nan;102324.03;5039566;28;20086;-40
2023/06/03 07:21:40;;;;;;;4.43;0.80;;;;;;;15.96;nan;102338.09;5041734;28;20075;-38
2023/06/03 07:24:08;;;;;;;4.10;1.10;;;;;;;16.02;nan;102331.59;5035227;28;20844;-39
2023/06/03 07:26:34;;;;;;;2.70;0.77;;;;;;;16.06;nan;102338.44;5045596;28;20036;-38
2023/06/03 07:29:00;;;;;;;11.73;4.30;;;;;;;16.09;nan;102332.09;5027151;28;20045;-38
2023/06/03 07:31:29;;;;;;;6.13;1.15;;;;;;;16.07;nan;102328.66;5044707;28;20031;-39
2023/06/03 07:33:56;;;;;;;3.67;1.00;;;;;;;16.07;nan;102339.28;5039452;28;20031;-39
2023/06/03 07:36:26;;;;;;;3.65;0.70;;;;;;;16.11;nan;102331.06;5043460;28;20020;-40
2023/06/03 07:39:11;;;;;;;5.55;1.33;;;;;;;16.17;nan;102331.66;5033895;28;20549;-38
2023/06/03 07:41:52;;;;;;;9.52;3.08;;;;;;;16.22;nan;102335.78;5043026;28;20526;-37
2023/06/03 07:44:42;;;;;;;6.80;2.08;;;;;;;16.29;nan;102334.50;5046423;28;20040;-40
2023/06/03 07:47:11;;;;;;;2.85;1.30;;;;;;;16.37;nan;102335.84;5030964;28;20139;-39
2023/06/03 07:49:36;;;;;;;2.75;1.10;;;;;;;16.40;nan;102331.22;5033865;28;20029;-40
2023/06/03 07:52:02;;;;;;;8.68;3.30;;;;;;;16.42;nan;102323.16;5037756;28;20036;-39
2023/06/03 07:54:28;;;;;;;4.97;1.92;;;;;;;16.36;nan;102332.34;5040716;28;20823;-38
2023/06/03 07:56:55;;;;;;;6.10;1.05;;;;;;;16.36;nan;102335.00;5041114;28;20025;-39
2023/06/03 07:59:21;;;;;;;4.20;1.20;;;;;;;16.38;nan;102333.13;5047422;28;21196;-40
2023/06/03 08:01:50;;;;;;;3.53;0.90;;;;;;;16.39;nan;102318.03;5048148;28;20399;-40
2023/06/03 08:04:29;;;;;;;5.15;1.20;;;;;;;16.41;nan;102321.44;5048813;28;20407;-39
2023/06/03 08:06:56;;;;;;;2.20;0.95;;;;;;;16.43;nan;102319.56;5047935;28;20504;-40
2023/06/03 08:09:36;;;;;;;6.18;1.58;;;;;;;16.52;nan;102323.50;5051192;28;20035;-40
2023/06/03 08:12:06;;;;;;;4.07;1.30;;;;;;;16.57;nan;102321.41;5047191;28;20039;-39
2023/06/03 08:14:34;;;;;;;2.38;1.00;;;;;;;16.62;nan;102308.72;5044986;28;20032;-39
2023/06/03 08:17:30;;;;;;;2.40;0.95;;;;;;;16.64;nan;102317.47;5046964;28;20025;-38
2023/06/03 08:19:56;;;;;;;6.45;1.75;;;;;;;16.62;nan;102316.69;5048348;28;20044;-39
2023/06/03 08:22:41;;;;;;;3.13;1.38;;;;;;;16.67;nan;102316.41;5042171;28;20403;-40
2023/06/03 08:25:07;;;;;;;6.43;2.20;;;;;;;16.67;nan;102322.59;5049343;28;20045;-39
2023/06/03 08:27:34;;;;;;;4.03;2.05;;;;;;;16.71;nan;102316.13;5046057;28;20120;-40
2023/06/03 08:30:03;;;;;;;2.95;0.93;;;;;;;16.66;nan;102315.56;5049393;28;20040;-39
2023/06/03 08:32:38;;;;;;;3.08;0.93;;;;;;;16.69;nan;102312.75;5049348;28;20499;-39
2023/06/03 08:35:04;;;;;;;3.95;0.98;;;;;;;16.67;nan;102317.28;5047323;28;20514;-39
2023/06/03 08:37:32;;;;;;;4.70;0.90;;;;;;;16.69;nan;102310.09;5052478;28;20056;-40
2023/06/03 08:39:57;;;;;;;3.75;0.90;;;;;;;16.65;nan;102305.00;5035506;28;20044;-40
2023/06/03 08:42:30;;;;;;;2.70;0.90;;;;;;;16.66;nan;102304.06;5044335;28;20780;-39
2023/06/03 08:45:01;;;;;;;2.78;0.88;;;;;;;16.68;nan;102319.00;5046580;28;20044;-39
2023/06/03 08:48:05;;;;;;;5.27;1.77;;;;;;;16.74;nan;102313.31;5040512;28;20030;-40
2023/06/03 08:50:32;;;;;;;2.42;0.77;;;;;;;16.81;nan;102318.28;5044001;28;20491;-38
2023/06/03 08:53:02;;;;;;;3.95;0.90;;;;;;;16.85;nan;102319.81;5046243;28;20041;-40
2023/06/03 08:55:27;;;;;;;5.53;0.88;;;;;;;16.91;nan;102314.97;5039755;28;20510;-39
2023/06/03 08:58:25;;;;;;;5.97;1.52;;;;;;;16.99;nan;102313.69;5036884;28;20039;-39
2023/06/03 09:00:59;;;;;;;2.45;0.80;;;;;;;17.08;nan;102314.94;5034685;28;20103;-40
2023/06/03 09:03:25;;;;;;;5.20;1.75;;;;;;;17.10;nan;102313.03;5038970;28;20029;-40
2023/06/03 09:05:54;;;;;;;3.25;0.95;;;;;;;17.10;nan;102319.19;5038262;28;20454;-40
2023/06/03 09:08:20;;;;;;;2.13;1.00;;;;;;;17.09;nan;102311.31;5044521;28;20079;-39
2023/06/03 09:10:47;;;;;;;2.70;1.02;;;;;;;17.09;nan;102317.50;5043576;28;20033;-39
2023/06/03 09:13:17;;;;;;;1.95;0.77;;;;;;;17.15;nan;102310.97;5041180;28;20029;-39
2023/06/03 09:15:43;;;;;;;3.42;1.80;;;;;;;17.10;nan;102313.88;5040359;28;20052;-39
2023/06/03 09:18:09;;;;;;;3.63;0.80;;;;;;;17.12;nan;102313.81;5046414;28;20105;-39
2023/06/03 09:20:35;;;;;;;4.28;0.90;;;;;;;17.12;nan;102308.47;5044429;28;20075;-39
2023/06/03 09:23:01;;;;;;;6.05;1.90;;;;;;;17.14;nan;102299.47;5043453;28;20025;-40
2023/06/03 09:25:27;;;;;;;3.85;1.20;;;;;;;17.21;nan;102298.16;5047023;28;20025;-38
2023/06/03 09:27:53;;;;;;;7.30;1.90;;;;;;;17.31;nan;102294.91;5041788;28;20439;-38
2023/06/03 09:30:18;;;;;;;8.52;3.00;;;;;;;17.39;nan;102302.41;5036091;28;21197;-38
2023/06/03 09:32:44;;;;;;;7.30;3.40;;;;;;;17.46;nan;102296.63;5037859;28;20028;-38
2023/06/03 09:35:10;;;;;;;11.93;6.15;;;;;;;17.51;nan;102291.88;5042046;28;20115;-39
2023/06/03 09:37:35;;;;;;;11.40;5.60;;;;;;;17.56;nan;102296.91;5043101;28;20039;-37
2023/06/03 09:40:04;;;;;;;19.80;9.82;;;;;;;17.62;nan;102295.66;5038191;28;20497;-37
2023/06/03 09:42:49;;;;;;;17.65;8.50;;;;;;;17.68;nan;102288.13;5037871;28;20107;-38
2023/06/03 09:45:41;;;;;;;12.48;5.63;;;;;;;17.68;nan;102293.47;5027496;28;20065;-40
2023/06/03 09:48:08;;;;;;;14.68;5.88;;;;;;;17.72;nan;102293.25;5033020;28;20085;-40
2023/06/03 09:50:47;;;;;;;12.18;5.53;;;;;;;17.81;nan;102290.00;5042679;28;20491;-40
2023/06/03 09:53:18;;;;;;;12.13;5.57;;;;;;;17.85;nan;102288.03;5042447;28;20041;-40
2023/06/03 09:55:44;;;;;;;12.77;5.85;;;;;;;17.87;nan;102286.97;5024290;28;20029;-38
2023/06/03 09:58:10;;;;;;;9.27;3.90;;;;;;;17.89;nan;102286.84;5030372;28;20084;-39
2023/06/03 10:00:49;;;;;;;7.07;2.88;;;;;;;17.93;nan;102275.06;5024876;28;20028;-39
2023/06/03 10:03:15;;;;;;;7.15;3.30;;;;;;;17.93;nan;102281.22;5032710;28;20040;-40
2023/06/03 10:05:41;;;;;;;11.25;4.18;;;;;;;17.95;nan;102281.97;5040867;28;20025;-40
2023/06/03 10:08:07;;;;;;;11.55;4.38;;;;;;;18.02;nan;102278.97;5038802;28;22193;-40
2023/06/03 10:10:33;;;;;;;8.93;3.42;;;;;;;18.04;nan;102285.06;5041869;28;20060;-40
2023/06/03 10:13:19;;;;;;;12.30;4.82;;;;;;;18.12;nan;102274.72;5006885;28;20033;-39
2023/06/03 10:15:45;;;;;;;11.15;4.47;;;;;;;18.10;nan;102265.97;5026692;28;20495;-39
2023/06/03 10:18:11;;;;;;;13.45;5.30;;;;;;;18.13;nan;102271.13;5034479;28;20033;-40
2023/06/03 10:20:40;;;;;;;12.82;5.03;;;;;;;18.17;nan;102269.97;5033765;28;20031;-40
2023/06/03 10:23:08;;;;;;;9.15;4.07;;;;;;;18.21;nan;102259.97;5024279;28;20491;-40
2023/06/03 10:25:41;;;;;;;10.82;4.07;;;;;;;18.27;nan;102265.72;5025721;28;24541;-39
2023/06/03 10:28:07;;;;;;;11.23;4.80;;;;;;;18.33;nan;102263.63;5021504;28;20033;-40
2023/06/03 10:30:33;;;;;;;14.05;5.43;;;;;;;18.40;nan;102267.56;5039156;28;20082;-40
2023/06/03 10:33:03;;;;;;;8.85;3.70;;;;;;;18.46;nan;102266.31;5042080;28;20037;-39
2023/06/03 10:35:30;;;;;;;7.65;3.80;;;;;;;18.44;nan;102261.09;5035687;28;21228;-41
2023/06/03 10:37:56;;;;;;;11.85;3.92;;;;;;;18.41;nan;102254.16;5022137;28;20032;-40
2023/06/03 10:40:22;;;;;;;10.55;3.78;;;;;;;18.42;nan;102255.00;5028089;28;20033;-40
2023/06/03 10:42:49;;;;;;;5.00;2.17;;;;;;;18.44;nan;102247.75;5014374;28;21149;-40
2023/06/03 10:45:14;;;;;;;6.40;2.50;;;;;;;18.42;nan;102255.00;5016643;28;20044;-39
2023/06/03 10:47:44;;;;;;;6.65;2.83;;;;;;;18.44;nan;102242.44;5028975;28;20036;-39
2023/06/03 10:50:24;;;;;;;6.70;2.95;;;;;;;18.49;nan;102250.97;5015617;28;20152;-39
2023/06/03 10:53:34;;;;;;;8.15;2.47;;;;;;;18.52;nan;102241.91;5022459;28;20078;-40
2023/06/03 10:56:29;;;;;;;5.57;2.35;;;;;;;18.54;nan;102245.34;5020924;28;20124;-38
2023/06/03 10:59:02;;;;;;;12.73;4.68;;;;;;;18.52;nan;102240.13;5023985;28;20033;-39
2023/06/03 11:02:00;;;;;;;6.00;2.78;;;;;;;18.59;nan;102240.56;5022539;28;20020;-39
2023/06/03 11:04:27;;;;;;;4.72;1.33;;;;;;;18.66;nan;102235.66;5013440;28;20025;-42
2023/06/03 11:06:53;;;;;;;3.35;0.98;;;;;;;18.73;nan;102244.91;5012739;28;20044;-39
2023/06/03 11:09:40;;;;;;;1.95;0.85;;;;;;;18.85;nan;102238.75;5023641;28;20029;-38
2023/06/03 11:12:09;;;;;;;4.03;1.70;;;;;;;18.92;nan;102236.50;5012659;28;20124;-38
2023/06/03 11:14:42;;;;;;;6.38;1.50;;;;;;;18.95;nan;102227.47;5021576;28;20029;-38
2023/06/03 11:17:09;;;;;;;3.47;1.30;;;;;;;18.98;nan;102236.09;5015815;28;20025;-39
2023/06/03 11:19:45;;;;;;;3.83;1.48;;;;;;;19.04;nan;102226.81;5026176;28;20108;-40
2023/06/03 11:22:13;;;;;;;3.90;1.13;;;;;;;19.11;nan;102236.13;5028500;28;20397;-39
2023/06/03 11:24:38;;;;;;;4.35;0.90;;;;;;;19.12;nan;102232.47;5029042;28;20036;-40
2023/06/03 11:27:28;;;;;;;4.05;1.10;;;;;;;19.21;nan;102230.13;5029723;28;20041;-40
2023/06/03 11:29:56;;;;;;;5.93;2.10;;;;;;;19.23;nan;102228.19;5027946;28;20051;-39
2023/06/03 11:32:25;;;;;;;2.60;0.90;;;;;;;19.30;nan;102219.63;5025689;28;20037;-41
2023/06/03 11:35:11;;;;;;;3.17;1.30;;;;;;;19.38;nan;102221.75;5025246;28;20029;-41
2023/06/03 11:37:38;;;;;;;5.03;1.70;;;;;;;19.45;nan;102219.50;5026510;28;20448;-40
2023/06/03 11:40:08;;;;;;;4.22;2.15;;;;;;;19.56;nan;102213.38;5029292;28;20041;-39
2023/06/03 11:42:49;;;;;;;7.43;3.28;;;;;;;19.67;nan;102220.59;5030041;28;20112;-38
2023/06/03 11:45:21;;;;;;;8.35;3.13;;;;;;;19.72;nan;102216.63;5025133;28;20052;-39
2023/06/03 11:48:07;;;;;;;9.93;4.20;;;;;;;19.76;nan;102215.44;5031891;28;20025;-39